createdAt,value
2023-05-22T00:00:09.713Z,13.94
2023-05-22T00:05:15.197Z,13.68
2023-05-22T00:10:16.948Z,13.62
2023-05-22T00:15:18.653Z,13.62
2023-05-22T00:20:20.315Z,13.66
2023-05-22T00:25:21.951Z,13.72
2023-05-22T00:30:23.581Z,13.51
2023-05-22T00:35:25.289Z,13.45
2023-05-22T00:40:26.994Z,13.39
2023-05-22T00:45:29.127Z,13.53
2023-05-22T00:50:30.874Z,13.54
2023-05-22T00:55:32.549Z,13.25
2023-05-22T01:00:40.123Z,13.25
2023-05-22T01:05:43.518Z,13.20
2023-05-22T01:10:45.533Z,13.17
2023-05-22T01:16:10.969Z,13.02
2023-05-22T01:21:25.541Z,13.11
2023-05-22T01:26:49.542Z,13.15
2023-05-22T01:31:55.451Z,13.00
2023-05-22T01:37:00.349Z,12.89
2023-05-22T01:42:02.469Z,12.71
2023-05-22T01:47:05.883Z,12.80
2023-05-22T01:52:15.490Z,12.89
2023-05-22T01:57:27.760Z,12.91
2023-05-22T02:02:30.871Z,12.70
2023-05-22T02:07:35.337Z,12.43
2023-05-22T02:12:39.632Z,12.36
2023-05-22T02:17:41.525Z,12.76
2023-05-22T02:22:48.244Z,12.41
2023-05-22T02:27:49.953Z,12.44
2023-05-22T02:32:51.947Z,12.51
2023-05-22T02:37:53.751Z,12.40
2023-05-22T02:42:55.436Z,12.21
2023-05-22T02:47:57.400Z,12.20
2023-05-22T02:52:59.173Z,12.18
2023-05-22T02:58:00.855Z,12.17
2023-05-22T03:03:02.625Z,12.23
2023-05-22T03:08:04.479Z,12.10
2023-05-22T03:13:06.137Z,12.01
2023-05-22T03:18:07.905Z,11.97
2023-05-22T03:23:12.528Z,12.17
2023-05-22T03:28:14.889Z,12.19
2023-05-22T03:33:16.747Z,12.27
2023-05-22T03:38:18.759Z,12.32
2023-05-22T03:43:20.409Z,12.27
2023-05-22T03:48:22.130Z,12.62
2023-05-22T03:53:23.833Z,12.70
2023-05-22T03:58:26.001Z,12.59
2023-05-22T04:03:28.394Z,12.72
2023-05-22T04:08:30.901Z,13.69
2023-05-22T04:13:34.939Z,13.76
2023-05-22T04:18:36.833Z,14.19
2023-05-22T04:23:38.741Z,14.85
2023-05-22T04:28:40.863Z,15.39
2023-05-22T04:33:42.876Z,15.15
2023-05-22T04:38:44.926Z,15.20
2023-05-22T04:43:48.434Z,15.64
2023-05-22T04:48:51.084Z,15.79
2023-05-22T04:53:55.694Z,15.58
2023-05-22T04:58:57.552Z,16.46
2023-05-22T05:03:59.293Z,16.34
2023-05-22T05:09:02.187Z,16.52
2023-05-22T05:14:04.189Z,16.68
2023-05-22T05:19:05.896Z,17.28
2023-05-22T05:24:07.884Z,17.31
2023-05-22T05:29:10.052Z,17.49
2023-05-22T05:34:22.542Z,17.18
2023-05-22T05:39:37.065Z,17.57
2023-05-22T05:44:41.606Z,18.14
2023-05-22T05:49:43.406Z,17.41
2023-05-22T05:54:47.523Z,18.50
2023-05-22T05:59:53.637Z,19.47
2023-05-22T06:05:15.543Z,19.38
2023-05-22T06:10:17.620Z,18.65
2023-05-22T06:15:31.647Z,18.80
2023-05-22T06:20:33.379Z,18.85
2023-05-22T06:25:36.024Z,19.32
2023-05-22T06:30:40.380Z,19.88
2023-05-22T06:35:47.068Z,20.97
2023-05-22T06:40:50.047Z,20.48
2023-05-22T06:45:55.915Z,21.70
2023-05-22T06:50:57.573Z,21.43
2023-05-22T06:56:00.482Z,21.74
2023-05-22T07:01:22.216Z,25.24
2023-05-22T07:06:42.558Z,26.28
2023-05-22T07:11:46.152Z,27.28
2023-05-22T07:16:50.516Z,28.73
2023-05-22T07:22:00.178Z,26.49
2023-05-22T07:27:04.476Z,27.70
2023-05-22T07:32:08.444Z,29.70
2023-05-22T07:37:12.999Z,31.35
2023-05-22T07:42:16.437Z,34.75
2023-05-22T07:47:24.515Z,31.44
2023-05-22T07:52:26.694Z,31.44
2023-05-22T07:57:29.997Z,30.96
2023-05-22T08:02:36.830Z,29.48
2023-05-22T08:07:38.652Z,30.61
2023-05-22T08:12:40.441Z,28.80
2023-05-22T08:17:42.114Z,30.03
2023-05-22T08:22:43.882Z,30.24
2023-05-22T08:27:45.577Z,30.18
2023-05-22T08:32:47.359Z,29.79
2023-05-22T08:37:49.015Z,31.20
2023-05-22T08:42:54.372Z,29.46
2023-05-22T08:47:58.165Z,29.45
2023-05-22T08:53:04.456Z,33.74
2023-05-22T08:58:06.808Z,34.97
2023-05-22T09:03:10.203Z,33.38
2023-05-22T09:08:19.666Z,34.06
2023-05-22T09:13:26.434Z,34.90
2023-05-22T09:18:29.239Z,33.36
2023-05-22T09:23:30.935Z,33.74
2023-05-22T09:28:37.283Z,34.89
2023-05-22T09:33:39.048Z,33.37
2023-05-22T09:38:41.431Z,33.56
2023-05-22T09:43:50.847Z,33.68
2023-05-22T09:48:53.497Z,32.21
2023-05-22T09:54:03.533Z,35.02
2023-05-22T09:59:09.918Z,35.58
2023-05-22T10:04:14.509Z,31.36
2023-05-22T10:09:19.679Z,30.50
2023-05-22T10:14:22.457Z,30.16
2023-05-22T10:19:27.392Z,30.83
2023-05-22T10:24:31.513Z,30.06
2023-05-22T10:29:43.215Z,30.05
2023-05-22T10:34:57.544Z,30.09
2023-05-22T10:40:05.328Z,29.69
2023-05-22T10:45:07.920Z,30.52
2023-05-22T10:50:11.565Z,31.07
2023-05-22T10:55:13.516Z,29.89
2023-05-22T11:00:16.227Z,30.54
2023-05-22T11:05:21.697Z,29.38
2023-05-22T11:10:27.222Z,31.90
2023-05-22T11:15:32.501Z,31.23
2023-05-22T11:20:37.696Z,29.85
2023-05-22T11:25:41.365Z,31.39
2023-05-22T11:30:43.481Z,30.54
2023-05-22T11:35:48.087Z,31.07
2023-05-22T11:40:52.066Z,30.49
2023-05-22T11:45:53.745Z,32.50
2023-05-22T11:50:55.671Z,32.13
2023-05-22T11:56:05.064Z,30.44
2023-05-22T12:01:06.820Z,31.34
2023-05-22T12:06:09.417Z,31.15
2023-05-22T12:11:14.318Z,31.13
2023-05-22T12:16:21.986Z,31.44
2023-05-22T12:21:23.810Z,30.73
2023-05-22T12:26:25.539Z,30.50
2023-05-22T12:31:27.415Z,31.95
2023-05-22T12:36:43.730Z,31.54
2023-05-22T12:41:46.326Z,32.06
2023-05-22T12:46:48.132Z,31.36
2023-05-22T12:51:49.790Z,30.65
2023-05-22T12:56:51.477Z,30.60
2023-05-22T13:01:53.979Z,31.04
2023-05-22T13:06:56.109Z,30.79
2023-05-22T13:11:57.806Z,30.19
2023-05-22T13:16:59.473Z,30.41
2023-05-22T13:22:01.155Z,29.78
2023-05-22T13:27:02.848Z,28.71
2023-05-22T13:32:04.857Z,28.32
2023-05-22T13:37:06.911Z,27.98
2023-05-22T13:42:08.703Z,28.17
2023-05-22T13:47:10.514Z,27.72
2023-05-22T13:52:12.213Z,27.87
2023-05-22T13:57:13.928Z,27.00
2023-05-22T14:02:15.672Z,27.21
2023-05-22T14:07:17.471Z,27.75
2023-05-22T14:12:19.239Z,27.62
2023-05-22T14:17:21.041Z,28.01
2023-05-22T14:22:22.687Z,28.29
2023-05-22T14:27:24.406Z,28.39
2023-05-22T14:32:26.095Z,28.20
2023-05-22T14:37:27.766Z,28.34
2023-05-22T14:42:29.424Z,28.78
2023-05-22T14:47:31.144Z,27.91
2023-05-22T14:52:32.792Z,27.90
2023-05-22T14:57:34.883Z,27.42
2023-05-22T15:02:37.258Z,27.58
2023-05-22T15:07:44.894Z,27.10
2023-05-22T15:12:47.819Z,26.82
2023-05-22T15:17:49.522Z,27.09
2023-05-22T15:22:51.209Z,27.16
2023-05-22T15:27:53.182Z,26.94
2023-05-22T15:32:54.857Z,26.72
2023-05-22T15:37:59.440Z,26.76
2023-05-22T15:43:03.934Z,26.66
2023-05-22T15:48:07.290Z,26.29
2023-05-22T15:53:09.227Z,26.29
2023-05-22T15:58:13.161Z,26.10
2023-05-22T16:03:15.455Z,26.01
2023-05-22T16:08:17.415Z,25.76
2023-05-22T16:13:19.068Z,25.88
2023-05-22T16:18:21.718Z,25.65
2023-05-22T16:23:23.365Z,25.48
2023-05-22T16:28:25.070Z,25.36
2023-05-22T16:33:26.828Z,25.32
2023-05-22T16:38:28.472Z,25.38
2023-05-22T16:43:30.105Z,25.39
2023-05-22T16:48:31.756Z,25.16
2023-05-22T16:53:33.529Z,24.93
2023-05-22T16:58:35.904Z,24.73
2023-05-22T17:03:37.881Z,24.38
2023-05-22T17:08:39.806Z,24.40
2023-05-22T17:13:41.548Z,24.12
2023-05-22T17:18:43.325Z,24.07
2023-05-22T17:23:45.242Z,23.86
2023-05-22T17:28:47.161Z,23.82
2023-05-22T17:33:48.864Z,23.74
2023-05-22T17:38:50.524Z,23.65
2023-05-22T17:43:52.210Z,23.62
2023-05-22T17:48:55.276Z,23.54
2023-05-22T17:53:59.022Z,23.46
2023-05-22T17:59:01.408Z,23.27
2023-05-22T18:04:04.857Z,23.00
2023-05-22T18:09:07.914Z,22.96
2023-05-22T18:14:09.593Z,22.78
2023-05-22T18:19:11.250Z,22.64
2023-05-22T18:24:13.908Z,22.46
2023-05-22T18:29:15.677Z,22.45
2023-05-22T18:34:17.506Z,22.26
2023-05-22T18:39:19.181Z,22.10
2023-05-22T18:44:23.222Z,21.81
2023-05-22T18:49:24.913Z,21.70
2023-05-22T18:54:27.161Z,21.62
2023-05-22T18:59:28.828Z,21.50
2023-05-22T19:04:30.545Z,21.25
2023-05-22T19:09:32.312Z,20.64
2023-05-22T19:14:33.979Z,20.57
2023-05-22T19:19:35.797Z,20.50
2023-05-22T19:24:37.467Z,20.23
2023-05-22T19:29:39.119Z,19.84
2023-05-22T19:34:41.041Z,19.54
2023-05-22T19:39:42.730Z,19.63
2023-05-22T19:44:44.369Z,19.37
2023-05-22T19:49:46.086Z,19.07
2023-05-22T19:54:47.739Z,18.94
2023-05-22T19:59:50.673Z,18.83
2023-05-22T20:04:52.404Z,18.84
2023-05-22T20:09:54.087Z,18.57
2023-05-22T20:14:55.862Z,18.59
2023-05-22T20:19:58.756Z,18.53
2023-05-22T20:25:01.490Z,18.48
2023-05-22T20:30:03.646Z,18.31
2023-05-22T20:35:06.956Z,18.21
2023-05-22T20:40:12.055Z,18.22
2023-05-22T20:45:14.847Z,18.07
2023-05-22T20:50:18.056Z,17.98
2023-05-22T20:55:19.768Z,18.21
2023-05-22T21:00:22.140Z,17.91
2023-05-22T21:05:23.837Z,17.88
2023-05-22T21:10:26.174Z,17.64
2023-05-22T21:15:27.845Z,17.71
2023-05-22T21:20:29.488Z,17.68
2023-05-22T21:25:31.211Z,17.55
2023-05-22T21:30:32.842Z,17.48
2023-05-22T21:35:34.513Z,17.41
2023-05-22T21:40:36.194Z,17.46
2023-05-22T21:45:38.941Z,17.64
2023-05-22T21:50:40.837Z,17.53
2023-05-22T21:55:42.711Z,17.39
2023-05-22T22:00:44.388Z,17.56
2023-05-22T22:05:46.037Z,17.63
2023-05-22T22:10:47.714Z,17.84
2023-05-22T22:15:49.676Z,17.67
2023-05-22T22:20:54.171Z,17.66
2023-05-22T22:25:56.196Z,17.61
2023-05-22T22:30:58.497Z,17.31
2023-05-22T22:36:00.295Z,17.44
2023-05-22T22:41:01.987Z,17.39
2023-05-22T22:46:03.705Z,17.30
2023-05-22T22:51:05.452Z,17.16
2023-05-22T22:56:07.122Z,17.00
2023-05-22T23:01:08.791Z,17.19
2023-05-22T23:06:10.623Z,16.90
2023-05-22T23:11:12.276Z,17.31
2023-05-22T23:16:14.004Z,17.22
2023-05-22T23:21:15.663Z,17.32
2023-05-22T23:26:17.371Z,17.23
2023-05-22T23:31:19.383Z,17.06
2023-05-22T23:36:21.126Z,16.96
2023-05-22T23:41:24.493Z,17.04
2023-05-22T23:46:26.242Z,17.37
2023-05-22T23:51:27.901Z,17.53
2023-05-22T23:56:29.631Z,17.24
